Time;durP1;ratioP1;P1;durP2;ratioP2;P2;SDS_P1;SDS_P2;PMS_P1;PMS_P2;Temp;Humidity;BMP_temperature;BMP_pressure;BME280_temperature;BME280_humidity;BME280_pressure;Samples;Min_cycle;Max_cycle;Signal;HPM_P1;HPM_P2
2022/06/26 00:00:10;;;;;;;3.30;0.50;;;;;;;27.44;52.16;100440.53;4969909;28;20105;-70
2022/06/26 00:02:36;;;;;;;4.13;0.45;;;;;;;27.46;52.24;100442.94;4969601;28;20124;-69
2022/06/26 00:05:02;;;;;;;4.05;0.70;;;;;;;27.45;51.97;100444.81;4968446;28;20066;-69
2022/06/26 00:07:27;;;;;;;2.13;0.40;;;;;;;27.44;52.10;100449.38;4969829;28;20397;-70
2022/06/26 00:09:53;;;;;;;7.15;0.50;;;;;;;27.44;52.04;100449.38;4969739;28;20035;-69
2022/06/26 00:12:18;;;;;;;0.98;0.40;;;;;;;27.45;51.89;100450.16;4968506;28;20030;-70
2022/06/26 00:14:44;;;;;;;2.60;0.40;;;;;;;27.45;52.13;100450.16;4969496;28;20054;-70
2022/06/26 00:17:09;;;;;;;2.45;0.50;;;;;;;27.43;52.36;100447.75;4969597;28;20101;-70
2022/06/26 00:19:35;;;;;;;2.15;0.55;;;;;;;27.42;52.25;100451.47;4969932;28;20507;-69
2022/06/26 00:22:05;;;;;;;4.05;0.60;;;;;;;27.42;52.33;100456.03;4968262;28;20022;-70
2022/06/26 00:24:32;;;;;;;4.88;0.50;;;;;;;27.42;52.27;100446.13;4968070;28;20129;-70
2022/06/26 00:26:57;;;;;;;6.07;0.63;;;;;;;27.41;52.38;100449.88;4968632;28;20037;-69
2022/06/26 00:29:22;;;;;;;5.70;0.77;;;;;;;27.37;52.57;100438.09;4969502;28;20031;-70
2022/06/26 00:31:48;;;;;;;4.13;0.60;;;;;;;27.35;52.46;100447.44;4969293;28;20070;-70
2022/06/26 00:34:13;;;;;;;5.07;0.80;;;;;;;27.30;52.64;100442.84;4969172;28;20039;-70
2022/06/26 00:36:39;;;;;;;5.38;0.70;;;;;;;27.28;52.90;100433.47;4973141;28;20023;-71
2022/06/26 00:39:04;;;;;;;3.08;0.50;;;;;;;27.28;52.72;100442.31;4973615;28;20034;-70
2022/06/26 00:41:29;;;;;;;1.95;0.47;;;;;;;27.31;52.59;100444.47;4973368;28;20031;-70
2022/06/26 00:43:55;;;;;;;3.35;0.50;;;;;;;27.32;52.42;100440.72;4972027;28;20089;-70
2022/06/26 00:46:24;;;;;;;2.90;0.43;;;;;;;27.35;52.45;100439.41;4973257;28;20027;-69
2022/06/26 00:48:50;;;;;;;8.30;0.65;;;;;;;27.35;52.27;100440.22;4973192;28;20093;-69
2022/06/26 00:51:15;;;;;;;3.97;0.60;;;;;;;27.38;52.45;100449.59;4972900;28;20027;-69
2022/06/26 00:53:41;;;;;;;4.18;0.60;;;;;;;27.38;52.46;100446.94;4970177;28;20034;-70
2022/06/26 00:56:06;;;;;;;1.48;0.30;;;;;;;27.37;52.12;100454.16;4972315;28;20038;-70
2022/06/26 00:58:32;;;;;;;2.15;0.32;;;;;;;27.37;52.51;100450.66;4971924;28;20031;-69
2022/06/26 01:00:57;;;;;;;3.47;0.57;;;;;;;27.36;52.34;100452.53;4973065;28;20030;-70
2022/06/26 01:03:23;;;;;;;1.92;0.40;;;;;;;27.37;52.19;100456.81;4971752;28;22372;-70
2022/06/26 01:05:48;;;;;;;2.17;0.60;;;;;;;27.37;51.96;100459.50;4971518;28;20110;-70
2022/06/26 01:08:14;;;;;;;5.13;0.52;;;;;;;27.37;52.02;100448.81;4973039;28;20114;-70
2022/06/26 01:10:39;;;;;;;2.88;0.40;;;;;;;27.37;51.77;100448.00;4972626;28;20030;-70
2022/06/26 01:13:06;;;;;;;2.35;0.47;;;;;;;27.32;52.06;100450.63;4971915;28;20031;-70
2022/06/26 01:15:32;;;;;;;3.90;0.70;;;;;;;27.19;52.24;100443.81;4972497;28;20049;-70
2022/06/26 01:17:58;;;;;;;6.55;0.52;;;;;;;27.18;52.45;100442.22;4972505;28;20387;-71
2022/06/26 01:20:23;;;;;;;3.60;0.70;;;;;;;27.20;52.36;100452.66;4972431;28;20069;-69
2022/06/26 01:23:00;;;;;;;2.58;0.98;;;;;;;27.12;52.50;100445.09;4972412;28;20035;-70
2022/06/26 01:25:26;;;;;;;4.38;0.68;;;;;;;27.09;52.30;100441.84;4972198;28;20046;-70
2022/06/26 01:27:51;;;;;;;6.70;0.70;;;;;;;27.10;52.59;100443.47;4971720;28;20031;-70
2022/06/26 01:30:17;;;;;;;2.67;0.40;;;;;;;27.09;52.39;100436.50;4972202;28;20037;-69
2022/06/26 01:32:43;;;;;;;4.70;0.50;;;;;;;27.12;52.33;100443.22;4972209;28;20385;-69
2022/06/26 01:35:08;;;;;;;1.80;0.60;;;;;;;27.15;52.45;100442.72;4970966;28;20122;-70
2022/06/26 01:37:33;;;;;;;3.67;0.60;;;;;;;27.20;52.36;100440.09;4972721;28;20094;-69
2022/06/26 01:39:59;;;;;;;1.85;0.50;;;;;;;27.20;52.24;100442.75;4972229;28;20050;-70
2022/06/26 01:42:24;;;;;;;2.78;0.45;;;;;;;27.24;52.18;100445.72;4972164;28;20093;-70
2022/06/26 01:44:50;;;;;;;1.90;0.57;;;;;;;27.26;51.92;100440.94;4970518;28;20475;-70
2022/06/26 01:47:15;;;;;;;3.45;0.50;;;;;;;27.27;52.10;100434.53;4972012;28;20027;-70
2022/06/26 01:49:41;;;;;;;2.35;0.50;;;;;;;27.27;52.25;100440.69;4971814;28;20043;-71
2022/06/26 01:52:06;;;;;;;2.35;0.40;;;;;;;27.29;51.97;100437.75;4972262;28;20646;-69
2022/06/26 01:54:32;;;;;;;4.00;0.57;;;;;;;27.29;51.86;100437.75;4970637;28;20050;-70
2022/06/26 01:56:57;;;;;;;1.92;0.35;;;;;;;27.28;52.00;100428.94;4971961;28;20041;-71
2022/06/26 01:59:22;;;;;;;3.35;0.60;;;;;;;27.30;52.14;100429.47;4970958;28;20507;-70
2022/06/26 02:01:48;;;;;;;2.45;0.43;;;;;;;27.30;51.94;100436.69;4971919;28;20031;-70
2022/06/26 02:04:16;;;;;;;1.50;0.50;;;;;;;27.29;51.86;100438.56;4970794;28;20030;-70
2022/06/26 02:06:42;;;;;;;3.88;0.40;;;;;;;27.29;51.84;100441.25;4971249;28;20081;-70
2022/06/26 02:13:35;;;;;;;5.22;0.50;;;;;;;27.29;51.73;100438.56;4970520;28;20034;-70
2022/06/26 02:14:37;;;;;;;6.55;0.77;;;;;;;27.26;51.63;100432.91;4970459;28;20061;-70
2022/06/26 02:17:03;;;;;;;3.70;0.65;;;;;;;27.26;51.42;100435.59;4971632;28;20074;-70
2022/06/26 02:19:28;;;;;;;1.13;0.30;;;;;;;27.26;51.42;100435.59;4971482;28;20023;-69
2022/06/26 02:21:53;;;;;;;4.28;0.45;;;;;;;27.27;51.22;100437.19;4971304;28;20031;-70
2022/06/26 02:24:19;;;;;;;5.30;0.60;;;;;;;27.28;51.23;100439.63;4970328;28;20023;-69
2022/06/26 02:26:44;;;;;;;2.05;0.55;;;;;;;27.28;51.17;100434.28;4971301;28;20225;-69
2022/06/26 02:29:10;;;;;;;4.20;0.57;;;;;;;27.28;51.44;100439.63;4969938;28;20035;-69
2022/06/26 02:31:35;;;;;;;4.95;0.50;;;;;;;27.27;51.25;100438.00;4971317;28;20022;-69
2022/06/26 02:34:00;;;;;;;4.00;0.40;;;;;;;27.26;51.20;100436.41;4971500;28;20034;-70
2022/06/26 02:36:26;;;;;;;2.78;0.40;;;;;;;27.28;50.90;100438.81;4971077;28;20713;-69
2022/06/26 02:38:51;;;;;;;2.88;0.70;;;;;;;27.27;51.18;100434.53;4971146;28;20023;-70
2022/06/26 02:41:17;;;;;;;4.45;0.50;;;;;;;27.24;51.25;100438.53;4969818;28;20046;-69
2022/06/26 02:43:42;;;;;;;1.63;0.30;;;;;;;27.23;51.07;100439.56;4970909;28;20030;-70
2022/06/26 02:46:08;;;;;;;3.58;0.60;;;;;;;27.24;50.88;100432.38;4970041;28;20114;-70
2022/06/26 02:48:33;;;;;;;3.22;0.50;;;;;;;27.23;50.85;100436.91;4971217;28;20074;-69
2022/06/26 02:50:59;;;;;;;2.40;0.60;;;;;;;27.19;51.13;100435.81;4969578;28;20489;-70
2022/06/26 02:53:24;;;;;;;4.22;0.60;;;;;;;27.21;50.87;100433.69;4970797;28;20042;-70
2022/06/26 02:55:50;;;;;;;4.43;1.05;;;;;;;27.11;51.00;100433.59;4970798;28;20034;-69
2022/06/26 02:58:16;;;;;;;3.85;1.00;;;;;;;27.06;51.26;100445.03;4970122;28;20023;-70
2022/06/26 03:00:41;;;;;;;2.10;0.45;;;;;;;27.00;51.47;100437.22;4969403;28;20061;-69
2022/06/26 03:03:07;;;;;;;3.38;0.52;;;;;;;27.01;51.45;100438.84;4970775;28;20026;-69
2022/06/26 03:05:32;;;;;;;5.13;0.43;;;;;;;27.01;51.42;100438.84;4970871;28;20026;-69
2022/06/26 03:07:59;;;;;;;1.98;0.70;;;;;;;27.02;51.42;100440.44;4970540;28;20050;-69
2022/06/26 03:12:54;;;;;;;5.13;0.65;;;;;;;27.03;51.35;100444.75;4994328;28;20444;-69
2022/06/26 03:15:20;;;;;;;3.22;0.40;;;;;;;27.05;51.07;100445.28;5009615;28;20046;-69
2022/06/26 03:17:46;;;;;;;2.95;0.60;;;;;;;27.07;50.98;100443.97;5009389;28;20025;-70
2022/06/26 03:20:14;;;;;;;4.00;0.70;;;;;;;27.11;51.39;100444.28;5009091;28;20084;-70
2022/06/26 03:22:40;;;;;;;0.80;0.30;;;;;;;27.12;51.12;100453.91;5009115;28;20102;-69
2022/06/26 03:25:07;;;;;;;1.85;0.55;;;;;;;27.13;50.94;100452.84;5009214;28;20022;-69
2022/06/26 03:27:32;;;;;;;3.50;0.50;;;;;;;27.14;50.87;100454.47;5007687;28;20385;-69
2022/06/26 03:29:58;;;;;;;2.17;0.40;;;;;;;27.12;50.89;100451.25;5009646;28;20060;-70
2022/06/26 03:32:24;;;;;;;4.15;0.50;;;;;;;27.10;50.84;100453.38;5009251;28;20033;-69
2022/06/26 03:34:49;;;;;;;3.13;0.65;;;;;;;27.09;50.73;100457.09;5009034;28;20040;-69
2022/06/26 03:37:14;;;;;;;2.90;0.40;;;;;;;27.06;50.90;100452.25;5008906;28;20029;-69
2022/06/26 03:39:40;;;;;;;4.15;0.52;;;;;;;27.07;50.81;100451.19;5009203;28;20053;-69
2022/06/26 03:42:06;;;;;;;3.88;0.70;;;;;;;27.05;50.23;100454.13;5009070;28;20105;-69
2022/06/26 03:44:31;;;;;;;1.45;0.40;;;;;;;27.05;50.55;100453.31;5008920;28;20033;-69
2022/06/26 03:46:58;;;;;;;2.70;0.40;;;;;;;27.06;50.41;100458.41;5009100;28;20377;-70
2022/06/26 03:49:24;;;;;;;3.45;0.35;;;;;;;27.09;50.58;100457.09;5008663;28;20030;-70
2022/06/26 03:51:49;;;;;;;2.67;0.60;;;;;;;27.10;50.73;100453.38;5008702;28;20489;-70
2022/06/26 03:54:16;;;;;;;1.58;0.40;;;;;;;27.11;50.47;100449.63;5008796;28;20022;-70
2022/06/26 03:56:41;;;;;;;2.25;0.40;;;;;;;27.12;50.38;100456.59;5008970;28;20034;-69
2022/06/26 03:59:07;;;;;;;4.88;0.50;;;;;;;27.12;50.29;100451.25;5008778;28;20117;-69
2022/06/26 04:01:33;;;;;;;3.83;0.60;;;;;;;27.09;50.41;100465.13;5008550;28;20032;-69
2022/06/26 04:03:58;;;;;;;5.22;0.68;;;;;;;27.09;50.69;100457.09;5008454;28;20026;-69
2022/06/26 04:06:23;;;;;;;1.50;0.40;;;;;;;27.10;50.44;100458.72;5008647;28;20029;-69
2022/06/26 04:08:49;;;;;;;2.22;0.40;;;;;;;27.09;50.39;100454.41;5008237;28;20030;-69
2022/06/26 04:11:15;;;;;;;9.38;0.60;;;;;;;27.04;50.31;100460.53;5008360;28;20041;-70
2022/06/26 04:13:42;;;;;;;5.70;0.70;;;;;;;26.90;50.53;100458.50;5008734;28;20049;-69
2022/06/26 04:16:07;;;;;;;4.50;0.70;;;;;;;26.78;50.54;100453.31;5008719;28;20104;-69
2022/06/26 04:18:33;;;;;;;3.88;0.60;;;;;;;26.70;51.37;100464.44;5008152;28;20419;-69
2022/06/26 04:20:59;;;;;;;3.65;0.52;;;;;;;26.67;51.33;100464.94;5008347;28;20452;-69
2022/06/26 04:23:24;;;;;;;3.97;0.50;;;;;;;26.55;52.03;100461.59;5008386;28;20030;-69
2022/06/26 04:25:49;;;;;;;3.35;0.65;;;;;;;26.46;52.33;100463.91;5008372;28;20018;-69
2022/06/26 04:28:15;;;;;;;4.15;0.70;;;;;;;26.41;52.67;100467.31;5008316;28;20084;-69
2022/06/26 04:30:40;;;;;;;7.68;0.68;;;;;;;26.39;52.74;100468.63;5008274;28;20022;-69
2022/06/26 04:33:06;;;;;;;4.30;1.00;;;;;;;26.38;52.82;100456.34;5008051;28;20436;-70
2022/06/26 04:35:32;;;;;;;4.43;0.70;;;;;;;26.35;52.96;100464.84;5008418;28;20061;-70
2022/06/26 04:37:57;;;;;;;3.83;0.73;;;;;;;26.30;52.92;100456.72;5008538;28;20059;-69
2022/06/26 04:40:23;;;;;;;5.25;0.63;;;;;;;26.26;53.08;100464.44;5008153;28;20490;-69
2022/06/26 04:42:48;;;;;;;4.80;0.77;;;;;;;26.25;52.86;100468.16;5008094;28;20057;-69
2022/06/26 04:45:14;;;;;;;3.35;0.70;;;;;;;26.25;52.78;100465.47;5008088;28;20030;-69
2022/06/26 04:47:39;;;;;;;4.60;0.52;;;;;;;26.28;52.64;100467.66;5007968;28;20033;-69
2022/06/26 04:50:06;;;;;;;3.08;0.50;;;;;;;26.22;52.49;100465.97;5008290;28;20025;-69
2022/06/26 04:52:34;;;;;;;4.10;0.70;;;;;;;26.22;52.04;100462.50;5008001;28;20034;-69
2022/06/26 04:55:00;;;;;;;4.78;0.55;;;;;;;26.24;52.04;100471.06;5008117;28;20052;-70
2022/06/26 04:57:25;;;;;;;3.78;0.50;;;;;;;26.24;52.05;100471.06;5007885;28;20426;-69
2022/06/26 04:59:51;;;;;;;4.05;0.75;;;;;;;26.22;52.40;100473.19;5007947;28;20022;-69
2022/06/26 05:02:17;;;;;;;4.50;0.50;;;;;;;26.18;52.67;100477.41;5008103;28;20535;-69
2022/06/26 05:04:42;;;;;;;5.70;0.63;;;;;;;26.18;53.17;100480.88;5008182;28;20045;-69
2022/06/26 05:07:07;;;;;;;2.92;0.47;;;;;;;26.14;53.51;100482.41;5008116;28;20030;-69
2022/06/26 05:09:33;;;;;;;4.50;0.50;;;;;;;26.15;53.73;100480.56;5007950;28;20025;-69
2022/06/26 05:11:59;;;;;;;4.20;0.68;;;;;;;26.16;53.81;100480.31;5007641;28;20432;-70
2022/06/26 05:14:25;;;;;;;6.05;0.57;;;;;;;26.18;54.08;100477.41;5007841;28;20409;-70
2022/06/26 05:16:51;;;;;;;6.50;0.93;;;;;;;26.17;53.96;100475.78;5007679;28;20118;-70
2022/06/26 05:19:16;;;;;;;5.90;0.65;;;;;;;26.13;54.12;100470.13;5007667;28;20057;-70
2022/06/26 05:21:41;;;;;;;5.47;0.68;;;;;;;26.09;54.18;100469.81;5010257;28;20474;-69
2022/06/26 05:24:07;;;;;;;6.05;0.70;;;;;;;26.09;54.25;100477.00;5011687;28;20026;-69
2022/06/26 05:26:33;;;;;;;6.10;0.98;;;;;;;26.11;54.28;100474.91;5011373;28;20029;-69
2022/06/26 05:28:58;;;;;;;5.43;0.90;;;;;;;26.08;54.52;100484.22;5011391;28;20018;-70
2022/06/26 05:31:24;;;;;;;5.15;0.60;;;;;;;26.13;54.56;100484.28;5011111;28;20042;-70
2022/06/26 05:33:49;;;;;;;11.02;0.80;;;;;;;26.12;54.31;100482.66;5011289;28;20034;-69
2022/06/26 05:36:15;;;;;;;5.75;0.52;;;;;;;26.11;54.25;100474.91;5011199;28;20026;-70
2022/06/26 05:38:40;;;;;;;8.57;1.00;;;;;;;26.12;54.37;100489.88;5011134;28;20026;-70
2022/06/26 05:41:06;;;;;;;4.57;0.70;;;;;;;26.12;54.32;100484.53;5011282;28;20030;-70
2022/06/26 05:43:32;;;;;;;7.68;0.80;;;;;;;26.10;54.45;100494.63;5011010;28;20087;-70
2022/06/26 05:45:58;;;;;;;6.32;0.80;;;;;;;26.12;54.47;100489.88;5010319;28;20395;-70
2022/06/26 05:48:24;;;;;;;6.05;0.85;;;;;;;26.13;54.63;100497.63;5010883;28;20375;-70
2022/06/26 05:50:50;;;;;;;4.93;1.45;;;;;;;26.15;54.53;100500.06;5011151;28;20489;-70
2022/06/26 05:53:15;;;;;;;6.53;1.02;;;;;;;26.07;54.76;100498.59;5010818;28;20133;-70
2022/06/26 05:55:41;;;;;;;8.10;0.90;;;;;;;26.13;54.77;100502.97;5010709;28;20167;-70
2022/06/26 05:58:07;;;;;;;8.20;1.30;;;;;;;26.10;55.14;100503.47;5010797;28;20026;-70
2022/06/26 06:00:33;;;;;;;5.38;0.60;;;;;;;26.12;55.23;100498.69;5010570;28;20113;-69
2022/06/26 06:02:58;;;;;;;9.90;1.25;;;;;;;26.21;56.18;100499.06;5010524;28;20390;-69
2022/06/26 06:05:25;;;;;;;4.93;1.40;;;;;;;26.34;56.93;100511.28;5010621;28;20026;-70
2022/06/26 06:07:52;;;;;;;12.68;1.27;;;;;;;26.41;56.82;100498.56;5010607;28;20061;-69
2022/06/26 06:10:19;;;;;;;3.17;0.57;;;;;;;26.46;56.53;100501.31;5010515;28;20030;-69
2022/06/26 06:12:45;;;;;;;4.53;0.85;;;;;;;26.49;56.17;100497.31;5010233;28;20061;-69
2022/06/26 06:15:11;;;;;;;5.68;0.85;;;;;;;26.54;55.92;100503.53;5010279;28;20032;-69
2022/06/26 06:17:36;;;;;;;4.35;0.60;;;;;;;26.55;56.05;100499.78;5010306;28;20500;-69
2022/06/26 06:20:11;;;;;;;8.90;0.52;;;;;;;26.58;56.10;100506.50;5010376;28;20029;-69
2022/06/26 06:22:38;;;;;;;10.32;0.90;;;;;;;26.57;55.75;100502.22;5010766;28;20038;-70
2022/06/26 06:25:04;;;;;;;3.15;0.50;;;;;;;26.55;55.77;100507.81;5010396;28;20512;-69
2022/06/26 06:27:29;;;;;;;3.45;0.65;;;;;;;26.53;55.55;100509.91;5010409;28;20141;-70
2022/06/26 06:29:55;;;;;;;3.22;0.68;;;;;;;26.51;55.28;100513.91;5009929;28;20063;-70
2022/06/26 06:32:20;;;;;;;2.88;0.40;;;;;;;26.50;55.40;100506.94;5010165;28;20037;-69
2022/06/26 06:34:46;;;;;;;4.72;0.50;;;;;;;26.50;55.36;100504.25;5010135;28;20034;-70
2022/06/26 06:37:11;;;;;;;4.07;0.50;;;;;;;26.50;55.19;100506.94;5010029;28;20022;-69
2022/06/26 06:39:37;;;;;;;6.13;0.90;;;;;;;26.49;55.04;100506.13;5010682;28;20069;-69
2022/06/26 06:42:02;;;;;;;8.13;0.70;;;;;;;26.49;54.79;100508.81;5009958;28;20022;-70
2022/06/26 06:44:28;;;;;;;3.67;0.60;;;;;;;26.49;54.94;100511.47;5009779;28;20034;-69
2022/06/26 06:46:53;;;;;;;8.15;0.95;;;;;;;26.50;54.91;100515.75;5010111;28;20053;-69
2022/06/26 06:49:19;;;;;;;3.65;0.85;;;;;;;26.54;54.90;100510.72;5009779;28;20440;-69
2022/06/26 06:51:44;;;;;;;6.00;0.82;;;;;;;26.56;54.88;100508.63;4990842;28;20136;-69
2022/06/26 06:54:09;;;;;;;2.08;0.50;;;;;;;26.55;54.70;100515.00;4988744;28;20412;-69
2022/06/26 06:56:35;;;;;;;3.00;0.50;;;;;;;26.56;54.35;100511.28;4990273;28;20568;-69
2022/06/26 06:59:01;;;;;;;4.43;0.40;;;;;;;26.59;54.58;100510.78;4989118;28;20486;-69
2022/06/26 07:01:26;;;;;;;5.95;0.65;;;;;;;26.60;54.18;100518.56;4987949;28;20497;-69
2022/06/26 07:03:52;;;;;;;5.05;0.43;;;;;;;26.61;54.05;100514.84;4990207;28;20033;-69
2022/06/26 07:06:17;;;;;;;6.75;0.63;;;;;;;26.61;54.17;100514.84;4988691;28;20034;-69
2022/06/26 07:08:42;;;;;;;3.65;0.43;;;;;;;26.64;54.17;100514.34;4989896;28;20038;-70
2022/06/26 07:11:08;;;;;;;6.60;0.80;;;;;;;26.65;54.09;100520.50;4987514;28;20053;-69
2022/06/26 07:13:34;;;;;;;4.32;0.85;;;;;;;26.64;54.04;100519.69;4989831;28;20054;-69
2022/06/26 07:15:59;;;;;;;6.20;0.80;;;;;;;26.61;53.66;100522.84;4990090;28;20030;-69
2022/06/26 07:18:25;;;;;;;4.15;0.70;;;;;;;26.51;53.79;100520.03;4989645;28;20434;-69
2022/06/26 07:20:50;;;;;;;6.10;0.60;;;;;;;26.50;53.79;100517.63;4988077;28;20041;-69
2022/06/26 07:23:16;;;;;;;2.97;0.38;;;;;;;26.54;53.69;100532.91;4986456;28;20034;-69
2022/06/26 07:25:42;;;;;;;2.95;0.55;;;;;;;26.56;53.26;100528.13;4989435;28;20092;-69
2022/06/26 07:28:08;;;;;;;4.50;0.60;;;;;;;26.55;53.14;100529.19;4988645;28;20144;-69
2022/06/26 07:30:34;;;;;;;2.50;0.40;;;;;;;26.60;53.34;100529.25;4987702;28;20092;-68
2022/06/26 07:35:53;;;;;;;2.05;0.50;;;;;;;26.63;53.20;100533.28;4993588;23;20172;-70
2022/06/26 07:38:18;;;;;;;2.35;0.45;;;;;;;26.64;52.92;100535.72;4990226;28;20061;-70
2022/06/26 07:40:44;;;;;;;2.25;0.55;;;;;;;26.69;53.00;100530.44;5000896;28;20037;-69
2022/06/26 07:43:09;;;;;;;1.27;0.40;;;;;;;26.71;52.78;100528.31;4987857;28;20029;-69
2022/06/26 07:45:35;;;;;;;3.92;0.82;;;;;;;26.74;52.82;100525.16;5008822;28;20030;-69
2022/06/26 07:48:00;;;;;;;4.20;0.60;;;;;;;26.77;52.27;100524.66;4990798;28;20030;-69
2022/06/26 07:50:26;;;;;;;4.32;0.40;;;;;;;26.78;52.19;100523.59;4987406;28;20034;-71
2022/06/26 07:52:51;;;;;;;5.72;0.70;;;;;;;26.80;51.38;100525.22;4995049;28;20038;-69
2022/06/26 07:55:17;;;;;;;4.30;0.40;;;;;;;26.80;51.29;100528.69;4985208;28;20048;-69
2022/06/26 07:57:43;;;;;;;6.82;0.60;;;;;;;26.82;51.13;100525.78;4997360;28;20104;-69
2022/06/26 08:00:10;;;;;;;4.63;0.60;;;;;;;26.83;50.67;100530.88;4986906;28;20094;-69
2022/06/26 08:02:35;;;;;;;3.45;0.50;;;;;;;26.83;50.41;100530.88;4983661;28;20034;-69
2022/06/26 08:05:00;;;;;;;7.72;0.50;;;;;;;26.84;50.25;100532.47;4994500;28;20030;-69
2022/06/26 08:07:26;;;;;;;4.03;0.40;;;;;;;26.85;49.99;100531.44;4986396;28;20030;-69
2022/06/26 08:09:51;;;;;;;4.40;0.50;;;;;;;26.86;50.12;100532.22;4985217;28;20814;-69
2022/06/26 08:12:17;;;;;;;5.97;0.60;;;;;;;26.88;50.25;100532.78;4985718;28;20436;-70
2022/06/26 08:14:42;;;;;;;4.65;0.50;;;;;;;26.88;49.53;100536.28;4985667;28;20120;-69
2022/06/26 08:17:08;;;;;;;5.50;0.55;;;;;;;26.88;49.18;100536.28;4988630;28;20459;-69
2022/06/26 08:19:34;;;;;;;3.58;0.50;;;;;;;26.89;49.61;100534.41;4983991;28;20452;-70
2022/06/26 08:22:02;;;;;;;4.22;0.90;;;;;;;26.92;49.57;100531.25;4984666;28;20043;-70
2022/06/26 08:24:32;;;;;;;5.22;0.50;;;;;;;26.93;49.36;100532.84;4985048;28;20034;-70
2022/06/26 08:26:57;;;;;;;5.50;0.55;;;;;;;26.91;49.67;100530.44;4993713;28;20034;-69
2022/06/26 08:29:23;;;;;;;3.97;0.55;;;;;;;26.94;49.50;100539.81;4987325;28;20478;-69
2022/06/26 08:31:48;;;;;;;3.42;0.80;;;;;;;26.95;49.52;100541.41;4987507;28;20383;-69
2022/06/26 08:34:14;;;;;;;7.47;0.63;;;;;;;26.95;49.93;100536.06;4984832;28;20026;-70
2022/06/26 08:36:39;;;;;;;3.33;0.60;;;;;;;26.97;49.64;100533.97;4986723;28;20050;-69
2022/06/26 08:39:06;;;;;;;1.98;0.40;;;;;;;26.98;49.74;100540.94;4988552;28;20034;-69
2022/06/26 08:41:41;;;;;;;2.22;0.60;;;;;;;26.98;49.48;100541.75;4988566;28;20033;-69
2022/06/26 08:44:08;;;;;;;1.98;0.47;;;;;;;26.97;49.77;100531.28;4986559;28;20046;-69
2022/06/26 08:46:37;;;;;;;7.57;0.70;;;;;;;26.99;49.69;100531.84;4986811;28;20121;-69
2022/06/26 08:49:08;;;;;;;3.78;0.65;;;;;;;27.00;49.84;100528.94;4989584;28;20114;-70
2022/06/26 08:51:35;;;;;;;3.03;0.55;;;;;;;27.00;50.10;100534.28;4986703;28;20474;-70
2022/06/26 08:54:01;;;;;;;6.60;0.80;;;;;;;27.01;49.95;100527.06;4985720;28;20035;-69
2022/06/26 08:56:27;;;;;;;12.20;0.80;;;;;;;27.03;50.38;100539.13;4983887;28;20477;-70
2022/06/26 08:58:54;;;;;;;4.50;0.80;;;;;;;27.03;50.15;100541.81;4996822;28;20037;-71
2022/06/26 09:01:20;;;;;;;4.60;0.60;;;;;;;27.03;49.96;100544.47;4991371;28;20030;-69
2022/06/26 09:03:45;;;;;;;4.32;0.85;;;;;;;27.04;49.96;100545.28;4992781;28;20390;-69
2022/06/26 09:06:11;;;;;;;5.93;0.75;;;;;;;27.04;49.83;100547.94;4992896;28;20018;-70
2022/06/26 09:08:44;;;;;;;5.55;0.55;;;;;;;27.07;50.13;100550.13;4992516;28;20112;-69
2022/06/26 09:11:10;;;;;;;6.75;0.90;;;;;;;27.09;50.42;100548.00;4993849;28;20089;-69
2022/06/26 09:13:38;;;;;;;4.10;0.50;;;;;;;27.09;50.46;100551.50;4993166;28;20027;-69
2022/06/26 09:16:04;;;;;;;4.65;0.70;;;;;;;27.10;50.51;100549.63;4991869;28;20490;-69
2022/06/26 09:18:37;;;;;;;3.85;0.60;;;;;;;27.13;50.67;100546.47;4990399;28;20041;-69
2022/06/26 09:21:05;;;;;;;5.75;0.80;;;;;;;27.16;50.30;100545.94;4992005;28;20093;-69
2022/06/26 09:23:32;;;;;;;5.65;0.80;;;;;;;27.14;50.25;100540.03;5003474;28;20033;-69
2022/06/26 09:25:58;;;;;;;3.42;0.55;;;;;;;27.15;50.55;100541.66;5008363;28;20041;-69
2022/06/26 09:28:24;;;;;;;2.45;0.60;;;;;;;27.14;50.36;100540.03;4999157;28;20034;-69
2022/06/26 09:30:56;;;;;;;5.25;0.80;;;;;;;27.16;50.53;100548.63;4994475;28;20401;-69
2022/06/26 09:33:26;;;;;;;3.33;0.50;;;;;;;27.17;50.38;100550.25;5011166;28;20367;-69
2022/06/26 09:35:53;;;;;;;6.05;0.90;;;;;;;27.20;50.34;100556.97;4991862;28;20173;-69
2022/06/26 09:38:23;;;;;;;3.97;0.60;;;;;;;27.19;50.04;100553.47;4988687;28;20034;-69
2022/06/26 09:40:54;;;;;;;4.75;0.40;;;;;;;27.21;50.25;100556.69;4985087;28;20049;-69
2022/06/26 09:43:25;;;;;;;8.25;0.80;;;;;;;27.24;50.10;100556.19;4991607;28;20026;-69
2022/06/26 09:45:53;;;;;;;4.75;0.68;;;;;;;27.27;49.93;100561.06;4990172;28;20073;-68
2022/06/26 09:48:20;;;;;;;4.78;0.90;;;;;;;27.29;49.74;100556.25;4999255;28;20421;-68
2022/06/26 09:50:46;;;;;;;8.50;0.90;;;;;;;27.31;49.79;100556.81;4986014;28;20577;-68
2022/06/26 09:53:14;;;;;;;9.27;1.27;;;;;;;27.35;49.74;100552.56;5010900;28;20038;-68
2022/06/26 09:55:40;;;;;;;7.22;0.90;;;;;;;27.34;50.09;100545.59;5010729;28;20061;-69
2022/06/26 09:58:08;;;;;;;5.38;1.10;;;;;;;27.31;50.38;100551.47;5007530;28;20036;-68
2022/06/26 10:00:35;;;;;;;6.50;0.82;;;;;;;27.30;50.46;100549.84;5008782;28;20042;-69
2022/06/26 10:08:32;;;;;;;7.07;0.80;;;;;;;27.35;51.13;100554.44;4996648;28;20060;-69
2022/06/26 10:10:59;;;;;;;9.82;1.08;;;;;;;27.34;51.47;100553.63;4987986;28;20474;-69
2022/06/26 10:13:26;;;;;;;5.88;0.70;;;;;;;27.32;51.72;100542.38;4989173;28;20073;-69
2022/06/26 10:16:24;;;;;;;7.40;0.70;;;;;;;27.32;52.13;100541.56;4987139;28;20042;-69
2022/06/26 10:19:37;;;;;;;9.32;1.40;;;;;;;27.34;52.00;100539.44;4956373;28;20085;-69
2022/06/26 10:22:03;;;;;;;7.78;0.90;;;;;;;27.35;52.11;100535.72;4972554;28;20056;-68
2022/06/26 10:24:28;;;;;;;9.48;1.23;;;;;;;27.39;52.04;100540.31;4989868;28;20042;-69
2022/06/26 10:26:59;;;;;;;8.68;0.80;;;;;;;27.45;51.95;100533.09;4987297;28;20034;-69
2022/06/26 10:30:02;;;;;;;13.60;0.77;;;;;;;27.49;52.36;100541.44;5005934;28;20030;-69
2022/06/26 10:32:27;;;;;;;8.02;1.13;;;;;;;27.55;52.41;100545.78;5008994;28;20073;-69
2022/06/26 10:34:56;;;;;;;5.70;0.80;;;;;;;27.58;52.10;100542.59;5007530;28;20034;-69
2022/06/26 10:37:22;;;;;;;5.50;0.68;;;;;;;27.61;52.67;100537.56;4992447;28;20054;-69
2022/06/26 10:39:52;;;;;;;6.20;1.02;;;;;;;27.65;52.57;100541.34;5008203;28;20052;-69
2022/06/26 10:45:24;;;;;;;40.65;19.35;;;;;;;27.90;56.58;100538.03;5004699;28;20073;-69
2022/06/26 10:47:56;;;;;;;18.58;11.32;;;;;;;28.01;55.52;100534.38;4986148;28;20393;-69
2022/06/26 10:50:23;;;;;;;41.15;37.10;;;;;;;28.16;55.88;100535.53;4994758;28;20547;-69
2022/06/26 10:52:49;;;;;;;17.35;6.95;;;;;;;28.21;54.76;100543.63;4993651;28;20034;-69
2022/06/26 10:55:14;;;;;;;17.17;6.07;;;;;;;28.15;55.01;100537.41;4990227;28;20040;-69
2022/06/26 10:57:40;;;;;;;10.52;3.78;;;;;;;28.11;54.71;100532.84;4992089;28;20036;-69
2022/06/26 11:00:12;;;;;;;12.15;3.35;;;;;;;28.08;54.28;100540.31;4990303;28;20499;-69
2022/06/26 11:02:41;;;;;;;11.07;3.40;;;;;;;28.05;54.38;100534.66;4998384;28;20053;-69
2022/06/26 11:05:09;;;;;;;14.07;3.20;;;;;;;28.03;53.87;100534.13;5006130;28;20038;-70
2022/06/26 11:07:51;;;;;;;11.15;3.47;;;;;;;28.01;54.00;100529.03;5006230;28;20076;-69
2022/06/26 11:10:19;;;;;;;8.98;3.10;;;;;;;28.01;53.97;100533.56;4970940;28;20068;-69
2022/06/26 11:12:50;;;;;;;7.90;2.47;;;;;;;28.00;53.88;100522.06;5004710;28;20030;-68
2022/06/26 11:15:32;;;;;;;10.63;2.38;;;;;;;27.98;53.57;100528.72;4993817;28;20072;-69
2022/06/26 11:18:02;;;;;;;8.27;2.60;;;;;;;27.95;53.47;100530.06;5008411;28;20045;-68
2022/06/26 11:20:49;;;;;;;11.77;3.55;;;;;;;27.95;53.54;100524.69;5006607;28;20036;-69
2022/06/26 11:23:26;;;;;;;10.23;3.53;;;;;;;27.95;53.26;100527.38;5003341;28;20112;-69
2022/06/26 11:25:54;;;;;;;7.32;2.47;;;;;;;27.94;53.27;100528.44;4985233;28;20438;-69
2022/06/26 11:28:20;;;;;;;7.30;3.08;;;;;;;27.92;52.61;100525.22;4999643;28;20044;-69
2022/06/26 11:30:47;;;;;;;9.25;2.45;;;;;;;27.92;51.37;100519.84;5006787;28;20471;-69
2022/06/26 11:33:23;;;;;;;7.45;0.98;;;;;;;27.93;50.42;100531.38;5003979;28;20083;-69
2022/06/26 11:35:48;;;;;;;6.78;1.20;;;;;;;27.94;50.18;100517.72;4997049;28;20161;-69
2022/06/26 11:38:15;;;;;;;4.35;1.05;;;;;;;27.93;50.55;100524.16;5007425;28;20109;-69